sensor_id;sensor_type;location;lat;lon;timestamp;temperature;humidity
16178;DHT22;8195;51.220;9.746;2023-05-15T00:00:11;10.30;97.20
16178;DHT22;8195;51.220;9.746;2023-05-15T00:11:21;10.20;97.20
16178;DHT22;8195;51.220;9.746;2023-05-15T00:21:17;10.10;97.20
16178;DHT22;8195;51.220;9.746;2023-05-15T00:31:38;9.90;97.20
16178;DHT22;8195;51.220;9.746;2023-05-15T00:42:12;9.80;97.20
16178;DHT22;8195;51.220;9.746;2023-05-15T00:52:42;9.80;97.20
16178;DHT22;8195;51.220;9.746;2023-05-15T01:03:04;9.90;97.20
16178;DHT22;8195;51.220;9.746;2023-05-15T01:13:25;9.80;97.20
16178;DHT22;8195;51.220;9.746;2023-05-15T01:35:03;9.70;97.20
16178;DHT22;8195;51.220;9.746;2023-05-15T01:45:30;9.70;97.20
16178;DHT22;8195;51.220;9.746;2023-05-15T01:55:52;9.60;97.20
16178;DHT22;8195;51.220;9.746;2023-05-15T02:06:13;9.70;97.20
16178;DHT22;8195;51.220;9.746;2023-05-15T02:17:09;9.70;97.20
16178;DHT22;8195;51.220;9.746;2023-05-15T02:27:37;9.80;97.20
16178;DHT22;8195;51.220;9.746;2023-05-15T02:48:46;10.20;97.20
16178;DHT22;8195;51.220;9.746;2023-05-15T02:59:10;10.20;97.20
16178;DHT22;8195;51.220;9.746;2023-05-15T03:09:31;10.20;97.20
16178;DHT22;8195;51.220;9.746;2023-05-15T03:19:52;10.20;97.20
16178;DHT22;8195;51.220;9.746;2023-05-15T03:30:13;10.50;97.20
16178;DHT22;8195;51.220;9.746;2023-05-15T03:40:36;10.80;97.20
16178;DHT22;8195;51.220;9.746;2023-05-15T03:50:57;10.90;97.20
16178;DHT22;8195;51.220;9.746;2023-05-15T04:01:18;11.10;97.20
16178;DHT22;8195;51.220;9.746;2023-05-15T04:11:39;11.20;97.20
16178;DHT22;8195;51.220;9.746;2023-05-15T04:22:00;11.60;97.20
16178;DHT22;8195;51.220;9.746;2023-05-15T04:32:28;11.90;97.20
16178;DHT22;8195;51.220;9.746;2023-05-15T04:42:50;11.90;97.20
16178;DHT22;8195;51.220;9.746;2023-05-15T04:53:11;12.50;97.20
16178;DHT22;8195;51.220;9.746;2023-05-15T05:03:32;12.70;97.20
16178;DHT22;8195;51.220;9.746;2023-05-15T05:13:52;12.70;97.20
16178;DHT22;8195;51.220;9.746;2023-05-15T05:24:13;12.60;97.20
16178;DHT22;8195;51.220;9.746;2023-05-15T05:34:34;12.50;97.20
16178;DHT22;8195;51.220;9.746;2023-05-15T05:44:55;12.50;97.20
16178;DHT22;8195;51.220;9.746;2023-05-15T05:55:16;12.90;97.20
16178;DHT22;8195;51.220;9.746;2023-05-15T06:05:37;13.30;97.20
16178;DHT22;8195;51.220;9.746;2023-05-15T06:16:19;14.20;97.20
16178;DHT22;8195;51.220;9.746;2023-05-15T06:26:39;14.90;97.20
16178;DHT22;8195;51.220;9.746;2023-05-15T06:37:03;15.00;97.20
16178;DHT22;8195;51.220;9.746;2023-05-15T06:47:37;16.10;97.20
16178;DHT22;8195;51.220;9.746;2023-05-15T06:57:58;16.60;97.20
16178;DHT22;8195;51.220;9.746;2023-05-15T07:19:39;16.60;97.20
16178;DHT22;8195;51.220;9.746;2023-05-15T07:30:22;16.60;97.20
16178;DHT22;8195;51.220;9.746;2023-05-15T07:40:43;16.80;97.20
16178;DHT22;8195;51.220;9.746;2023-05-15T07:51:25;16.80;97.20
16178;DHT22;8195;51.220;9.746;2023-05-15T08:02:15;16.80;97.20
16178;DHT22;8195;51.220;9.746;2023-05-15T08:12:57;16.80;97.20
16178;DHT22;8195;51.220;9.746;2023-05-15T08:45:12;18.80;97.20
16178;DHT22;8195;51.220;9.746;2023-05-15T08:55:34;20.50;97.20
16178;DHT22;8195;51.220;9.746;2023-05-15T09:05:58;21.10;97.20
16178;DHT22;8195;51.220;9.746;2023-05-15T09:16:19;21.40;97.20
16178;DHT22;8195;51.220;9.746;2023-05-15T09:26:41;22.00;97.20
16178;DHT22;8195;51.220;9.746;2023-05-15T09:37:07;21.00;97.20
16178;DHT22;8195;51.220;9.746;2023-05-15T09:47:31;19.90;97.20
16178;DHT22;8195;51.220;9.746;2023-05-15T10:09:12;18.40;97.20
16178;DHT22;8195;51.220;9.746;2023-05-15T10:19:34;18.20;97.20
16178;DHT22;8195;51.220;9.746;2023-05-15T10:29:57;19.20;97.20
16178;DHT22;8195;51.220;9.746;2023-05-15T10:40:23;20.90;97.20
16178;DHT22;8195;51.220;9.746;2023-05-15T10:50:58;20.40;97.20
16178;DHT22;8195;51.220;9.746;2023-05-15T11:01:34;19.60;97.20
16178;DHT22;8195;51.220;9.746;2023-05-15T11:33:54;18.00;97.20
16178;DHT22;8195;51.220;9.746;2023-05-15T11:44:25;18.00;97.20
16178;DHT22;8195;51.220;9.746;2023-05-15T11:54:56;17.90;97.20
16178;DHT22;8195;51.220;9.746;2023-05-15T12:05:39;17.60;97.20
16178;DHT22;8195;51.220;9.746;2023-05-15T12:16:26;17.10;97.20
16178;DHT22;8195;51.220;9.746;2023-05-15T12:26:58;16.80;97.20
16178;DHT22;8195;51.220;9.746;2023-05-15T12:37:25;17.00;97.20
16178;DHT22;8195;51.220;9.746;2023-05-15T12:48:06;17.30;97.20
16178;DHT22;8195;51.220;9.746;2023-05-15T12:58:33;17.70;97.20
16178;DHT22;8195;51.220;9.746;2023-05-15T13:09:07;18.50;97.20
16178;DHT22;8195;51.220;9.746;2023-05-15T13:19:38;17.90;97.20
16178;DHT22;8195;51.220;9.746;2023-05-15T13:30:09;17.80;97.20
16178;DHT22;8195;51.220;9.746;2023-05-15T13:40:30;17.80;97.20
16178;DHT22;8195;51.220;9.746;2023-05-15T13:51:05;17.70;97.20
16178;DHT22;8195;51.220;9.746;2023-05-15T14:01:26;17.20;97.20
16178;DHT22;8195;51.220;9.746;2023-05-15T14:11:47;16.70;97.20
16178;DHT22;8195;51.220;9.746;2023-05-15T14:22:08;16.90;97.20
16178;DHT22;8195;51.220;9.746;2023-05-15T14:32:29;17.40;97.20
16178;DHT22;8195;51.220;9.746;2023-05-15T14:42:53;17.70;97.20
16178;DHT22;8195;51.220;9.746;2023-05-15T14:53:14;17.60;97.20
16178;DHT22;8195;51.220;9.746;2023-05-15T15:03:35;17.70;97.20
16178;DHT22;8195;51.220;9.746;2023-05-15T15:13:56;17.50;97.20
16178;DHT22;8195;51.220;9.746;2023-05-15T15:24:17;17.50;97.20
16178;DHT22;8195;51.220;9.746;2023-05-15T15:34:38;17.00;97.20
16178;DHT22;8195;51.220;9.746;2023-05-15T15:45:00;16.70;97.20
16178;DHT22;8195;51.220;9.746;2023-05-15T15:55:21;16.60;97.20
16178;DHT22;8195;51.220;9.746;2023-05-15T16:05:42;16.40;97.20
16178;DHT22;8195;51.220;9.746;2023-05-15T16:16:03;16.30;97.20
16178;DHT22;8195;51.220;9.746;2023-05-15T16:26:24;16.20;97.20
16178;DHT22;8195;51.220;9.746;2023-05-15T16:36:45;15.90;97.20
16178;DHT22;8195;51.220;9.746;2023-05-15T16:47:06;15.80;97.20
16178;DHT22;8195;51.220;9.746;2023-05-15T16:57:27;15.80;97.20
16178;DHT22;8195;51.220;9.746;2023-05-15T17:07:48;15.70;97.20
16178;DHT22;8195;51.220;9.746;2023-05-15T17:18:09;15.60;97.20
16178;DHT22;8195;51.220;9.746;2023-05-15T17:50:38;15.50;97.20
16178;DHT22;8195;51.220;9.746;2023-05-15T18:11:48;15.20;97.20
16178;DHT22;8195;51.220;9.746;2023-05-15T18:22:09;15.10;97.20
16178;DHT22;8195;51.220;9.746;2023-05-15T18:32:31;14.90;97.20
16178;DHT22;8195;51.220;9.746;2023-05-15T18:42:53;14.80;97.20
16178;DHT22;8195;51.220;9.746;2023-05-15T18:53:14;14.60;97.20
16178;DHT22;8195;51.220;9.746;2023-05-15T19:03:35;14.50;97.20
16178;DHT22;8195;51.220;9.746;2023-05-15T19:13:56;14.40;97.20
16178;DHT22;8195;51.220;9.746;2023-05-15T19:24:18;14.30;97.20
16178;DHT22;8195;51.220;9.746;2023-05-15T19:34:39;14.20;97.20
16178;DHT22;8195;51.220;9.746;2023-05-15T19:45:00;14.00;97.20
16178;DHT22;8195;51.220;9.746;2023-05-15T19:55:21;13.80;97.20
16178;DHT22;8195;51.220;9.746;2023-05-15T20:05:42;13.50;97.20
16178;DHT22;8195;51.220;9.746;2023-05-15T20:16:03;13.20;97.20
16178;DHT22;8195;51.220;9.746;2023-05-15T20:26:24;13.00;97.20
16178;DHT22;8195;51.220;9.746;2023-05-15T20:36:45;12.70;97.20
16178;DHT22;8195;51.220;9.746;2023-05-15T20:47:06;12.50;97.20
16178;DHT22;8195;51.220;9.746;2023-05-15T20:57:27;12.40;97.20
16178;DHT22;8195;51.220;9.746;2023-05-15T21:07:47;12.50;97.20
16178;DHT22;8195;51.220;9.746;2023-05-15T21:18:08;12.60;97.20
16178;DHT22;8195;51.220;9.746;2023-05-15T21:28:29;12.50;97.20
16178;DHT22;8195;51.220;9.746;2023-05-15T21:38:50;12.30;97.20
16178;DHT22;8195;51.220;9.746;2023-05-15T21:49:11;12.30;97.20
16178;DHT22;8195;51.220;9.746;2023-05-15T21:59:32;12.20;97.20
16178;DHT22;8195;51.220;9.746;2023-05-15T22:20:40;12.20;97.20
16178;DHT22;8195;51.220;9.746;2023-05-15T22:31:02;12.10;97.20
16178;DHT22;8195;51.220;9.746;2023-05-15T22:41:23;11.90;97.20
16178;DHT22;8195;51.220;9.746;2023-05-15T22:51:44;11.80;97.20
16178;DHT22;8195;51.220;9.746;2023-05-15T23:02:05;11.70;97.20
16178;DHT22;8195;51.220;9.746;2023-05-15T23:12:25;11.60;97.20
16178;DHT22;8195;51.220;9.746;2023-05-15T23:22:46;11.50;97.20
16178;DHT22;8195;51.220;9.746;2023-05-15T23:33:36;11.30;97.20
16178;DHT22;8195;51.220;9.746;2023-05-15T23:54:39;11.30;97.20
